Time;durP1;ratioP1;P1;durP2;ratioP2;P2;SDS_P1;SDS_P2;PMS_P1;PMS_P2;Temp;Humidity;BMP_temperature;BMP_pressure;BME280_temperature;BME280_humidity;BME280_pressure;Samples;Min_cycle;Max_cycle;Signal;HPM_P1;HPM_P2
2022/04/19 00:02:40;;;;;;;5.60;4.27;;;7.40;99.90;;;;;;5034571;28;20229;-63
2022/04/19 00:05:30;;;;;;;5.83;4.30;;;7.50;99.90;;;;;;5022741;28;20675;-63
2022/04/19 00:08:22;;;;;;;9.93;4.63;;;7.60;99.90;;;;;;5044025;28;20228;-62
2022/04/19 00:11:10;;;;;;;8.73;4.37;;;7.50;99.90;;;;;;5017780;28;20228;-63
2022/04/19 00:13:59;;;;;;;7.47;4.33;;;7.30;99.90;;;;;;5037903;28;20221;-62
2022/04/19 00:16:49;;;;;;;7.03;4.60;;;7.10;99.90;;;;;;5035676;28;20226;-62
2022/04/19 00:19:38;;;;;;;8.27;4.87;;;6.70;99.90;;;;;;5033881;28;20224;-62
2022/04/19 00:22:28;;;;;;;7.00;4.30;;;7.00;99.90;;;;;;5033708;28;20229;-62
2022/04/19 00:25:17;;;;;;;7.80;4.90;;;7.30;99.90;;;;;;5025660;28;20226;-62
2022/04/19 00:28:06;;;;;;;7.83;5.13;;;6.90;99.90;;;;;;5033786;28;20654;-62
2022/04/19 00:30:54;;;;;;;8.37;4.80;;;6.60;99.90;;;;;;5033152;28;20244;-62
2022/04/19 00:33:44;;;;;;;9.23;5.40;;;6.40;99.90;;;;;;5032464;28;20961;-62
2022/04/19 00:36:33;;;;;;;9.50;5.40;;;6.40;99.90;;;;;;5031905;28;20230;-62
2022/04/19 00:39:22;;;;;;;9.67;4.97;;;6.70;99.90;;;;;;5016875;28;20643;-62
2022/04/19 00:42:11;;;;;;;8.07;4.80;;;6.50;99.90;;;;;;5027788;28;20249;-63
2022/04/19 00:45:03;;;;;;;9.60;5.20;;;6.00;99.90;;;;;;5033948;28;20308;-63
2022/04/19 00:47:52;;;;;;;8.13;4.97;;;6.10;99.90;;;;;;5046663;28;20236;-64
2022/04/19 00:50:43;;;;;;;9.97;5.27;;;6.30;99.90;;;;;;5032357;28;20221;-63
2022/04/19 00:53:34;;;;;;;10.27;5.27;;;6.20;99.90;;;;;;5033136;28;20304;-63
2022/04/19 00:56:23;;;;;;;7.63;4.70;;;5.80;99.90;;;;;;5048012;28;20824;-63
2022/04/19 00:59:12;;;;;;;7.80;4.57;;;5.60;99.90;;;;;;5050178;28;20233;-64
2022/04/19 01:02:02;;;;;;;8.80;4.30;;;5.40;99.90;;;;;;5052236;28;20224;-63
2022/04/19 01:04:55;;;;;;;5.03;3.90;;;5.20;99.90;;;;;;5059041;28;20227;-64
2022/04/19 01:07:46;;;;;;;5.47;4.10;;;5.30;99.90;;;;;;5050019;28;20246;-64
2022/04/19 01:10:39;;;;;;;6.90;3.83;;;5.10;99.90;;;;;;5048687;28;20510;-64
2022/04/19 01:13:28;;;;;;;6.50;3.90;;;5.10;99.90;;;;;;5026789;28;20227;-63
2022/04/19 01:16:18;;;;;;;5.27;3.57;;;5.10;99.90;;;;;;5055340;28;20230;-64
2022/04/19 01:19:09;;;;;;;7.10;4.50;;;5.00;99.90;;;;;;5063037;28;20361;-63
2022/04/19 01:21:59;;;;;;;7.30;3.93;;;5.40;99.90;;;;;;5049526;28;20228;-64
2022/04/19 01:24:52;;;;;;;7.20;3.97;;;5.50;99.90;;;;;;5048022;28;20239;-64
2022/04/19 01:27:41;;;;;;;6.53;4.00;;;5.60;99.90;;;;;;5056914;28;20232;-63
2022/04/19 01:30:32;;;;;;;7.47;3.80;;;5.50;99.90;;;;;;5051857;28;20220;-63
2022/04/19 01:33:25;;;;;;;7.13;4.60;;;5.30;99.90;;;;;;5053443;28;20226;-64
2022/04/19 01:36:15;;;;;;;6.17;4.10;;;5.50;99.90;;;;;;5054033;28;20255;-63
2022/04/19 01:39:10;;;;;;;6.87;4.27;;;5.60;99.90;;;;;;5061752;28;20598;-63
2022/04/19 01:42:05;;;;;;;8.20;4.93;;;5.30;99.90;;;;;;5061453;28;20223;-64
2022/04/19 01:44:54;;;;;;;10.23;5.00;;;5.20;99.90;;;;;;5063425;28;20788;-63
2022/04/19 01:47:44;;;;;;;8.60;5.70;;;5.40;99.90;;;;;;5052961;28;20226;-63
2022/04/19 01:50:33;;;;;;;10.87;5.83;;;5.20;99.90;;;;;;5058809;28;20219;-64
2022/04/19 01:53:27;;;;;;;11.37;5.77;;;5.50;99.90;;;;;;5061793;28;20688;-63
2022/04/19 01:56:19;;;;;;;9.33;6.03;;;5.30;99.90;;;;;;5062423;28;20228;-64
2022/04/19 01:59:13;;;;;;;10.87;6.07;;;5.20;99.90;;;;;;5074137;28;20230;-63
2022/04/19 02:02:18;;;;;;;10.20;6.40;;;5.20;99.90;;;;;;5041032;28;20607;-63
2022/04/19 02:05:08;;;;;;;10.93;6.53;;;5.00;99.90;;;;;;5063341;28;20275;-63
2022/04/19 02:07:57;;;;;;;9.57;6.73;;;4.90;99.90;;;;;;5047755;28;20809;-63
2022/04/19 02:10:47;;;;;;;10.90;6.90;;;5.00;99.90;;;;;;5053714;28;20228;-64
2022/04/19 02:13:38;;;;;;;10.53;7.00;;;5.10;99.90;;;;;;5043193;28;20278;-63
2022/04/19 02:16:40;;;;;;;12.40;6.80;;;5.20;99.90;;;;;;5060720;28;20219;-63
2022/04/19 02:19:33;;;;;;;10.87;7.17;;;5.10;99.90;;;;;;5061552;28;20225;-62
2022/04/19 02:22:22;;;;;;;15.17;8.40;;;5.10;99.90;;;;;;5055920;28;20228;-64
2022/04/19 02:25:12;;;;;;;12.57;7.87;;;4.90;99.90;;;;;;5069235;28;20226;-65
2022/04/19 02:28:01;;;;;;;11.10;7.50;;;4.80;99.90;;;;;;5055622;28;20219;-64
2022/04/19 02:30:55;;;;;;;11.23;8.10;;;4.60;99.90;;;;;;5060198;28;20225;-63
2022/04/19 02:33:47;;;;;;;11.10;8.63;;;4.60;99.90;;;;;;5058820;28;20251;-64
2022/04/19 02:36:39;;;;;;;12.87;8.23;;;4.80;99.90;;;;;;5060556;28;20251;-63
2022/04/19 02:39:28;;;;;;;10.40;8.03;;;5.00;99.90;;;;;;5050828;28;20231;-63
2022/04/19 02:42:17;;;;;;;11.73;8.17;;;5.30;99.90;;;;;;5060393;28;20237;-63
2022/04/19 02:45:07;;;;;;;12.77;8.70;;;5.10;99.90;;;;;;5050541;28;20712;-63
2022/04/19 02:48:06;;;;;;;14.07;8.53;;;5.50;99.90;;;;;;5037602;28;20216;-64
2022/04/19 02:51:05;;;;;;;12.63;9.10;;;5.40;99.90;;;;;;5048452;28;20303;-63
2022/04/19 02:53:54;;;;;;;11.47;8.17;;;5.50;99.90;;;;;;5050100;28;20220;-64
2022/04/19 02:56:45;;;;;;;13.17;8.57;;;5.60;99.90;;;;;;5052104;28;20280;-64
2022/04/19 02:59:33;;;;;;;10.07;7.93;;;5.00;99.90;;;;;;5053077;28;20306;-64
2022/04/19 03:02:22;;;;;;;11.03;8.43;;;4.80;99.90;;;;;;5035608;28;20258;-64
2022/04/19 03:05:12;;;;;;;12.63;8.00;;;5.10;99.90;;;;;;5047691;28;20335;-64
2022/04/19 03:08:01;;;;;;;11.13;7.50;;;5.30;99.90;;;;;;5075049;28;20221;-64
2022/04/19 03:10:50;;;;;;;11.47;7.90;;;5.50;99.90;;;;;;5063079;28;20230;-63
2022/04/19 03:13:39;;;;;;;10.67;8.03;;;5.50;99.90;;;;;;5057168;28;20222;-63
2022/04/19 03:16:32;;;;;;;11.70;8.47;;;5.40;99.90;;;;;;5061866;28;20310;-63
2022/04/19 03:19:21;;;;;;;12.57;8.40;;;5.40;99.90;;;;;;5060845;28;20325;-63
2022/04/19 03:22:14;;;;;;;10.13;8.37;;;5.40;99.90;;;;;;5062350;28;20238;-62
2022/04/19 03:28:19;;;;;;;15.17;9.57;;;5.30;99.90;;;;;;5052983;28;20235;-63
2022/04/19 03:31:08;;;;;;;11.23;8.47;;;5.50;99.90;;;;;;5064950;28;20215;-63
2022/04/19 03:33:57;;;;;;;13.47;9.93;;;5.10;99.90;;;;;;5061827;28;20264;-63
2022/04/19 03:36:46;;;;;;;10.03;8.00;;;5.10;99.90;;;;;;5066037;28;20231;-63
2022/04/19 03:39:39;;;;;;;10.07;8.37;;;5.30;99.90;;;;;;5053799;28;20230;-63
2022/04/19 03:42:28;;;;;;;9.37;8.00;;;5.30;99.90;;;;;;5048087;28;20641;-62
2022/04/19 03:45:20;;;;;;;11.13;8.00;;;5.30;99.90;;;;;;5065008;28;20229;-63
2022/04/19 03:48:11;;;;;;;13.70;8.73;;;5.20;99.90;;;;;;5066700;28;20242;-64
2022/04/19 03:51:00;;;;;;;10.17;8.83;;;5.20;99.90;;;;;;5074395;28;20227;-64
2022/04/19 03:53:48;;;;;;;11.30;9.13;;;5.50;99.90;;;;;;5060872;28;20239;-62
2022/04/19 03:56:38;;;;;;;13.70;8.80;;;5.40;99.90;;;;;;5053046;28;20308;-63
2022/04/19 03:59:27;;;;;;;15.77;9.97;;;5.40;99.90;;;;;;5059112;28;20231;-65
2022/04/19 04:02:16;;;;;;;13.33;9.43;;;5.20;99.90;;;;;;5044066;28;20224;-62
2022/04/19 04:05:05;;;;;;;11.33;8.17;;;5.30;99.90;;;;;;5061279;28;20224;-62
2022/04/19 04:07:58;;;;;;;12.53;8.47;;;5.20;99.90;;;;;;5061116;28;20302;-62
2022/04/19 04:10:51;;;;;;;8.00;7.20;;;5.30;99.90;;;;;;5061317;28;20246;-64
2022/04/19 04:13:45;;;;;;;8.27;6.87;;;5.20;99.90;;;;;;5063183;28;20212;-62
2022/04/19 04:16:34;;;;;;;11.17;6.77;;;5.20;99.90;;;;;;5060031;28;20705;-63
2022/04/19 04:19:23;;;;;;;8.13;6.27;;;5.50;99.90;;;;;;5069858;28;20234;-63
2022/04/19 04:22:12;;;;;;;8.50;6.90;;;5.50;99.90;;;;;;5056051;28;20319;-63
2022/04/19 04:25:02;;;;;;;11.47;9.07;;;5.00;99.90;;;;;;5068378;28;20274;-61
2022/04/19 04:27:53;;;;;;;9.97;8.73;;;4.80;99.90;;;;;;5061851;28;20620;-63
2022/04/19 04:30:45;;;;;;;8.37;7.40;;;4.80;99.90;;;;;;5050883;28;20230;-62
2022/04/19 04:33:34;;;;;;;10.07;7.57;;;4.60;99.90;;;;;;5050122;28;20242;-61
2022/04/19 04:36:25;;;;;;;6.50;5.53;;;4.70;99.90;;;;;;5050891;28;20600;-61
2022/04/19 04:39:14;;;;;;;7.20;5.50;;;4.40;99.90;;;;;;5051938;28;20223;-61
2022/04/19 04:42:23;;;;;;;7.47;5.50;;;4.20;99.90;;;;;;5048584;28;20373;-61
2022/04/19 04:45:11;;;;;;;6.97;5.80;;;4.40;99.90;;;;;;5061285;28;20296;-61
2022/04/19 04:51:14;;;;;;;10.47;6.60;;;4.00;99.90;;;;;;5038232;28;20547;-63
2022/04/19 04:54:03;;;;;;;10.27;7.43;;;3.90;99.90;;;;;;5051291;28;20226;-61
2022/04/19 04:56:52;;;;;;;9.70;7.13;;;3.80;99.90;;;;;;5062901;28;20400;-62
2022/04/19 04:59:47;;;;;;;9.60;6.90;;;3.70;99.90;;;;;;5061303;28;21032;-62
2022/04/19 05:02:36;;;;;;;11.30;6.60;;;3.60;99.90;;;;;;5061417;28;20223;-61
2022/04/19 05:05:28;;;;;;;8.67;6.80;;;3.60;99.90;;;;;;5055975;28;21001;-62
2022/04/19 05:08:23;;;;;;;8.97;6.73;;;3.60;99.90;;;;;;5051260;28;20223;-61
2022/04/19 05:11:12;;;;;;;9.53;6.57;;;3.60;99.90;;;;;;5071999;28;20262;-60
2022/04/19 05:14:02;;;;;;;8.80;6.70;;;3.80;99.90;;;;;;5059571;28;20824;-62
2022/04/19 05:16:52;;;;;;;7.73;6.20;;;3.80;99.90;;;;;;5054482;28;20313;-62
2022/04/19 05:19:41;;;;;;;7.67;5.50;;;3.70;99.90;;;;;;5050630;28;20217;-63
2022/04/19 05:22:33;;;;;;;7.13;5.33;;;3.80;99.90;;;;;;5051751;28;20735;-64
2022/04/19 05:25:22;;;;;;;6.90;5.33;;;3.80;99.90;;;;;;5046594;28;20843;-62
2022/04/19 05:28:11;;;;;;;6.37;4.80;;;3.70;99.90;;;;;;5031844;28;20274;-65
2022/04/19 05:31:00;;;;;;;5.47;4.70;;;3.90;99.90;;;;;;5053665;28;20239;-63
2022/04/19 05:33:49;;;;;;;6.90;5.30;;;4.10;99.90;;;;;;5042535;28;20372;-64
2022/04/19 05:36:38;;;;;;;5.63;4.67;;;4.10;99.90;;;;;;5021482;28;20634;-64
2022/04/19 05:39:31;;;;;;;8.27;5.63;;;4.10;99.90;;;;;;5038925;28;20248;-63
2022/04/19 05:42:20;;;;;;;6.67;5.37;;;4.00;99.90;;;;;;5043512;28;20225;-65
2022/04/19 05:45:11;;;;;;;6.83;5.47;;;4.10;99.90;;;;;;5051298;28;20250;-63
2022/04/19 05:48:00;;;;;;;7.83;6.30;;;3.90;99.90;;;;;;5045735;28;20230;-64
2022/04/19 05:50:51;;;;;;;10.90;7.43;;;4.10;99.90;;;;;;5047694;28;20707;-66
2022/04/19 05:53:40;;;;;;;8.97;7.67;;;3.80;99.90;;;;;;5044902;28;20313;-64
2022/04/19 05:56:33;;;;;;;10.37;8.87;;;3.90;99.90;;;;;;5019929;28;20227;-65
2022/04/19 05:59:23;;;;;;;9.40;8.40;;;4.00;99.90;;;;;;5026102;28;20317;-64
2022/04/19 06:05:18;;;;;;;11.27;8.13;;;4.10;99.90;;;;;;5038662;28;20228;-64
2022/04/19 06:08:07;;;;;;;11.27;8.37;;;4.20;99.90;;;;;;5050000;28;20225;-65
2022/04/19 06:10:57;;;;;;;10.63;9.27;;;4.30;99.90;;;;;;5047153;28;20295;-64
2022/04/19 06:13:47;;;;;;;15.30;9.80;;;4.20;99.90;;;;;;5029045;28;20683;-63
2022/04/19 06:16:36;;;;;;;8.63;6.63;;;4.40;99.90;;;;;;5042075;28;20218;-63
2022/04/19 06:19:25;;;;;;;9.60;7.97;;;4.50;99.90;;;;;;5042930;28;20243;-61
2022/04/19 06:22:17;;;;;;;8.17;7.33;;;4.20;99.90;;;;;;5030724;28;20246;-63
2022/04/19 06:25:17;;;;;;;9.80;7.40;;;4.10;99.90;;;;;;5017955;28;20230;-62
2022/04/19 06:28:05;;;;;;;7.77;6.87;;;4.40;99.90;;;;;;5036393;28;20326;-62
2022/04/19 06:31:16;;;;;;;9.87;6.93;;;4.50;99.90;;;;;;5058916;28;20227;-63
2022/04/19 06:34:17;;;;;;;9.10;6.60;;;4.30;99.90;;;;;;5044462;28;20315;-63
2022/04/19 06:37:35;;;;;;;8.27;6.10;;;4.40;99.90;;;;;;5060396;28;20224;-63
2022/04/19 06:40:33;;;;;;;6.83;6.20;;;4.30;99.90;;;;;;5040545;28;20229;-64
2022/04/19 06:43:22;;;;;;;6.23;5.63;;;4.70;99.90;;;;;;5061862;28;20714;-64
2022/04/19 06:46:22;;;;;;;6.90;6.20;;;4.70;99.90;;;;;;5046265;28;20293;-66
2022/04/19 06:49:23;;;;;;;6.50;5.60;;;4.80;99.90;;;;;;5059686;28;20246;-64
2022/04/19 06:52:15;;;;;;;7.03;6.23;;;4.70;99.90;;;;;;5043014;28;20230;-63
2022/04/19 06:55:04;;;;;;;9.63;5.60;;;4.70;99.90;;;;;;5057395;28;20366;-64
2022/04/19 06:57:53;;;;;;;9.40;6.07;;;5.10;99.90;;;;;;5045496;28;20587;-63
2022/04/19 07:00:42;;;;;;;6.77;6.07;;;5.10;99.90;;;;;;5053377;28;20302;-62
2022/04/19 07:03:33;;;;;;;6.43;5.50;;;5.20;99.90;;;;;;5044364;28;20277;-62
2022/04/19 07:06:44;;;;;;;6.20;5.17;;;5.20;99.90;;;;;;5054797;28;20283;-62
2022/04/19 07:09:32;;;;;;;7.00;5.30;;;5.00;99.90;;;;;;5043011;28;20220;-64
2022/04/19 07:12:22;;;;;;;7.47;5.70;;;5.00;99.90;;;;;;5035426;28;20225;-63
2022/04/19 07:15:31;;;;;;;6.40;5.10;;;5.10;99.90;;;;;;5050531;28;20265;-65
2022/04/19 07:18:23;;;;;;;5.97;5.37;;;5.10;99.90;;;;;;5058663;28;20231;-65
2022/04/19 07:28:04;;;;;;;5.83;4.73;;;4.80;99.90;;;;;;4994582;28;20435;-64
2022/04/19 07:31:01;;;;;;;7.00;5.27;;;4.90;99.90;;;;;;4982484;28;20305;-65
2022/04/19 07:33:50;;;;;;;6.73;5.20;;;4.80;99.90;;;;;;5056403;28;20303;-66
2022/04/19 07:36:41;;;;;;;6.37;5.07;;;5.00;99.90;;;;;;5076463;28;20218;-64
2022/04/19 07:39:29;;;;;;;6.57;5.50;;;5.00;99.90;;;;;;5064926;28;20270;-64
2022/04/19 07:42:18;;;;;;;9.10;5.30;;;5.00;99.90;;;;;;5074580;28;20223;-64
2022/04/19 07:45:09;;;;;;;5.80;5.07;;;5.10;99.90;;;;;;5057902;28;20255;-64
2022/04/19 07:48:01;;;;;;;8.10;5.43;;;5.20;99.90;;;;;;5056295;28;20371;-63
2022/04/19 07:50:50;;;;;;;6.63;5.57;;;5.20;99.90;;;;;;5056129;28;20220;-63
2022/04/19 07:53:40;;;;;;;6.67;5.60;;;5.40;99.90;;;;;;5078284;28;20246;-63
2022/04/19 07:56:32;;;;;;;7.47;5.43;;;5.50;99.90;;;;;;5059682;28;20230;-62
2022/04/19 07:59:20;;;;;;;6.20;5.30;;;5.50;99.90;;;;;;5056693;28;20239;-63
2022/04/19 08:02:09;;;;;;;6.13;5.33;;;5.20;99.90;;;;;;5041498;28;20220;-62
2022/04/19 08:04:58;;;;;;;8.13;5.90;;;5.30;99.90;;;;;;5066233;28;20225;-62
2022/04/19 08:07:50;;;;;;;6.53;5.43;;;5.50;99.90;;;;;;5074851;28;20339;-62
2022/04/19 08:10:41;;;;;;;7.73;6.63;;;5.60;99.90;;;;;;5051033;28;20630;-62
2022/04/19 08:13:31;;;;;;;6.00;5.07;;;5.70;99.90;;;;;;5059870;28;20222;-63
2022/04/19 08:16:19;;;;;;;6.43;5.60;;;5.50;99.90;;;;;;5057802;28;20227;-62
2022/04/19 08:19:08;;;;;;;6.50;5.53;;;5.50;99.90;;;;;;5064266;28;20246;-62
2022/04/19 08:21:58;;;;;;;7.97;5.47;;;5.70;99.90;;;;;;5045851;28;20690;-61
2022/04/19 08:24:50;;;;;;;8.13;5.60;;;5.40;99.90;;;;;;5033689;28;20233;-62
2022/04/19 08:27:42;;;;;;;6.80;5.53;;;5.20;99.90;;;;;;5034302;28;20221;-63
2022/04/19 08:30:31;;;;;;;7.90;5.37;;;5.30;99.90;;;;;;5054097;28;20239;-64
2022/04/19 08:33:20;;;;;;;5.87;5.27;;;5.10;99.90;;;;;;5061185;28;20700;-62
2022/04/19 08:36:09;;;;;;;6.20;5.20;;;5.30;99.90;;;;;;5034492;28;20213;-62
2022/04/19 08:38:58;;;;;;;7.97;5.27;;;5.70;99.90;;;;;;5035424;28;20240;-62
2022/04/19 08:41:50;;;;;;;6.97;5.40;;;5.60;99.90;;;;;;5056358;28;20231;-61
2022/04/19 08:44:40;;;;;;;6.13;5.53;;;5.60;99.90;;;;;;5050660;28;20232;-62
2022/04/19 08:47:31;;;;;;;7.63;6.17;;;5.40;99.90;;;;;;5033585;28;20229;-62
2022/04/19 08:50:21;;;;;;;7.17;5.90;;;5.40;99.90;;;;;;5041308;28;20799;-62
2022/04/19 08:59:29;;;;;;;8.67;6.03;;;5.60;99.90;;;;;;5030905;28;20751;-62
2022/04/19 09:02:23;;;;;;;7.83;5.80;;;5.50;99.90;;;;;;5030243;28;20359;-62
2022/04/19 09:05:14;;;;;;;8.10;6.67;;;5.50;99.90;;;;;;5030675;28;20932;-62
2022/04/19 09:08:04;;;;;;;7.80;5.93;;;5.70;99.90;;;;;;5028751;28;20696;-63
2022/04/19 09:11:05;;;;;;;8.57;6.37;;;5.80;99.90;;;;;;5043867;28;20309;-62
2022/04/19 09:14:05;;;;;;;8.57;6.50;;;6.00;99.90;;;;;;5044969;28;20224;-63
2022/04/19 09:17:04;;;;;;;7.47;5.80;;;6.40;99.90;;;;;;5039772;28;20216;-61
2022/04/19 09:19:54;;;;;;;7.23;5.80;;;6.40;99.90;;;;;;5058136;28;20247;-62
2022/04/19 09:22:43;;;;;;;9.10;6.73;;;6.50;99.90;;;;;;5058567;28;20238;-61
2022/04/19 09:25:33;;;;;;;8.77;6.57;;;6.40;99.90;;;;;;5062021;28;20610;-61
2022/04/19 09:28:23;;;;;;;7.80;5.87;;;6.40;99.90;;;;;;5048903;28;20236;-62
2022/04/19 09:31:12;;;;;;;7.47;5.97;;;6.00;99.90;;;;;;5061295;28;20228;-55
2022/04/19 09:34:01;;;;;;;7.83;5.60;;;6.30;99.90;;;;;;5062880;28;20313;-60
2022/04/19 09:37:07;;;;;;;8.10;5.70;;;6.10;99.90;;;;;;5045541;28;20632;-62
2022/04/19 09:39:57;;;;;;;7.03;5.13;;;6.40;99.90;;;;;;5047457;28;20216;-62
2022/04/19 09:42:45;;;;;;;6.70;5.20;;;6.40;99.90;;;;;;5048657;28;20224;-62
2022/04/19 09:45:51;;;;;;;7.07;5.33;;;6.80;99.90;;;;;;5060079;28;20587;-63
2022/04/19 09:48:41;;;;;;;7.40;5.47;;;6.80;99.90;;;;;;5062509;28;20310;-63
2022/04/19 09:51:32;;;;;;;5.80;4.83;;;6.70;99.90;;;;;;5055353;28;20362;-62
2022/04/19 09:54:23;;;;;;;6.83;5.17;;;6.70;99.90;;;;;;5043809;28;20216;-62
2022/04/19 09:57:12;;;;;;;7.00;4.90;;;6.70;99.90;;;;;;5039800;28;20267;-62
2022/04/19 10:00:01;;;;;;;5.83;3.83;;;6.60;99.90;;;;;;5035551;28;20297;-62
2022/04/19 10:09:21;;;;;;;4.33;3.93;;;7.20;99.90;;;;;;5046468;28;20265;-60
2022/04/19 10:12:11;;;;;;;5.67;4.00;;;7.10;99.90;;;;;;5023371;28;20229;-61
2022/04/19 10:15:00;;;;;;;6.17;3.93;;;7.30;99.90;;;;;;5039445;28;20232;-59
2022/04/19 10:17:49;;;;;;;4.37;3.87;;;7.30;99.90;;;;;;5058601;28;20221;-61
2022/04/19 10:20:40;;;;;;;6.83;4.10;;;7.60;99.90;;;;;;5062680;28;20228;-63
2022/04/19 10:23:36;;;;;;;4.97;4.27;;;7.50;99.90;;;;;;5056764;28;20546;-60
2022/04/19 10:26:25;;;;;;;5.30;4.47;;;7.70;99.90;;;;;;5042457;28;20216;-62
2022/04/19 10:29:21;;;;;;;5.90;3.70;;;7.30;99.90;;;;;;5044464;28;20224;-60
2022/04/19 10:32:10;;;;;;;4.80;3.83;;;7.10;99.90;;;;;;5053113;28;22781;-62
2022/04/19 10:35:03;;;;;;;5.13;4.03;;;6.90;99.90;;;;;;5051083;28;20316;-61
2022/04/19 10:38:19;;;;;;;5.13;4.07;;;6.60;99.90;;;;;;5058673;28;20224;-61
2022/04/19 10:41:08;;;;;;;6.23;4.20;;;6.60;99.90;;;;;;5053270;28;20229;-63
2022/04/19 10:44:39;;;;;;;6.80;4.50;;;6.70;99.90;;;;;;5041794;28;20236;-61
2022/04/19 10:47:29;;;;;;;5.23;4.10;;;6.80;99.90;;;;;;5043645;28;20248;-62
2022/04/19 10:50:28;;;;;;;4.73;4.13;;;7.10;99.90;;;;;;5055816;28;20236;-62
2022/04/19 10:53:16;;;;;;;5.57;4.30;;;6.90;99.90;;;;;;5057734;28;20303;-60
2022/04/19 10:56:06;;;;;;;6.17;4.47;;;7.10;99.90;;;;;;5055403;28;20336;-61
2022/04/19 10:58:55;;;;;;;5.77;4.93;;;6.90;99.90;;;;;;5048632;28;20712;-61
2022/04/19 11:01:43;;;;;;;6.93;5.13;;;6.90;99.90;;;;;;5054916;28;20268;-60
2022/04/19 11:04:40;;;;;;;6.17;5.03;;;6.50;99.90;;;;;;5051198;28;20304;-60
2022/04/19 11:07:43;;;;;;;11.27;5.80;;;6.60;99.90;;;;;;5055682;28;20230;-62
2022/04/19 11:10:38;;;;;;;6.77;5.40;;;6.80;99.90;;;;;;5057880;28;20216;-64
2022/04/19 11:13:29;;;;;;;8.30;5.40;;;6.80;99.90;;;;;;5057133;28;20242;-63
2022/04/19 11:16:18;;;;;;;6.10;5.13;;;6.80;99.90;;;;;;5054387;28;20577;-63
2022/04/19 11:19:19;;;;;;;6.70;5.23;;;6.80;99.90;;;;;;5052485;28;20217;-62
2022/04/19 11:22:29;;;;;;;7.47;5.10;;;6.90;99.90;;;;;;5067085;28;20220;-64
2022/04/19 11:25:39;;;;;;;6.77;4.53;;;6.80;99.90;;;;;;5053821;28;20220;-60
2022/04/19 11:28:30;;;;;;;5.20;4.70;;;6.50;99.90;;;;;;5060571;28;20248;-62
2022/04/19 11:31:19;;;;;;;5.73;5.00;;;6.40;99.90;;;;;;5059362;28;20220;-63
2022/04/19 11:34:11;;;;;;;5.50;4.73;;;6.50;99.90;;;;;;5055878;28;20687;-63
2022/04/19 11:37:04;;;;;;;6.10;4.83;;;6.70;99.90;;;;;;5063991;28;20215;-61
2022/04/19 11:49:34;;;;;;;5.27;3.83;;;7.40;99.90;;;;;;5059010;28;20705;-61
2022/04/19 11:52:28;;;;;;;5.80;4.40;;;7.40;99.90;;;;;;5055293;28;20243;-61
2022/04/19 11:55:19;;;;;;;5.10;4.30;;;7.60;99.90;;;;;;5061296;28;20220;-63
2022/04/19 11:58:08;;;;;;;5.17;4.60;;;7.70;99.90;;;;;;5058960;28;20289;-64
2022/04/19 12:00:58;;;;;;;5.43;4.23;;;7.90;99.90;;;;;;5061065;28;20222;-64
2022/04/19 12:03:47;;;;;;;5.70;4.67;;;7.80;99.90;;;;;;5056891;28;20733;-66
2022/04/19 12:06:36;;;;;;;4.87;4.20;;;7.60;99.90;;;;;;5052419;28;20578;-63
2022/04/19 12:09:25;;;;;;;5.43;4.60;;;7.50;99.90;;;;;;5058381;28;20284;-63
2022/04/19 12:12:20;;;;;;;5.73;4.30;;;7.60;99.90;;;;;;5058253;28;20878;-63
2022/04/19 12:15:09;;;;;;;5.17;4.40;;;8.00;99.90;;;;;;5068944;28;20220;-65
2022/04/19 12:17:58;;;;;;;4.50;4.10;;;7.90;99.90;;;;;;5062594;28;20208;-64
2022/04/19 12:20:47;;;;;;;4.40;4.00;;;7.60;99.90;;;;;;5061738;28;20975;-63
2022/04/19 12:23:37;;;;;;;4.93;4.27;;;7.50;99.90;;;;;;5063321;28;20232;-62
2022/04/19 12:26:26;;;;;;;4.40;3.97;;;7.80;99.90;;;;;;5076559;28;20759;-63
2022/04/19 12:29:16;;;;;;;5.27;4.13;;;7.90;99.90;;;;;;5078278;28;20234;-62
2022/04/19 12:32:06;;;;;;;4.77;3.87;;;7.80;99.90;;;;;;5061729;28;20226;-63
2022/04/19 12:35:08;;;;;;;4.47;4.07;;;7.80;99.90;;;;;;5074447;28;20576;-63
2022/04/19 12:38:08;;;;;;;5.73;4.57;;;8.40;99.90;;;;;;5062573;28;20214;-63
2022/04/19 12:40:57;;;;;;;4.97;4.20;;;8.40;99.90;;;;;;5078149;28;20220;-63
2022/04/19 12:43:47;;;;;;;5.17;4.33;;;8.30;99.90;;;;;;5076303;28;20341;-62
2022/04/19 12:46:42;;;;;;;5.43;4.20;;;8.20;99.90;;;;;;5081084;28;20377;-64
2022/04/19 12:49:32;;;;;;;5.80;4.23;;;8.20;99.90;;;;;;5073038;28;20276;-63
2022/04/19 12:52:21;;;;;;;7.97;4.73;;;8.10;99.90;;;;;;5076322;28;20219;-63
2022/04/19 12:55:10;;;;;;;5.37;4.40;;;8.10;99.90;;;;;;5075088;28;20337;-64
2022/04/19 12:58:08;;;;;;;5.83;4.30;;;8.30;99.90;;;;;;5063550;28;20282;-63
2022/04/19 13:00:57;;;;;;;7.00;4.47;;;8.40;99.90;;;;;;5074500;28;20727;-63
2022/04/19 13:03:48;;;;;;;4.40;3.77;;;8.60;99.90;;;;;;5079560;28;20236;-63
2022/04/19 13:12:50;;;;;;;4.67;4.17;;;8.00;99.90;;;;;;5074948;28;20703;-63
2022/04/19 13:15:39;;;;;;;5.50;4.23;;;8.10;99.90;;;;;;5074949;28;20262;-61
2022/04/19 13:18:28;;;;;;;4.70;4.20;;;8.10;99.90;;;;;;5069706;28;20241;-62
2022/04/19 13:21:19;;;;;;;4.53;4.03;;;8.60;99.90;;;;;;5063759;28;20991;-64
2022/04/19 13:24:08;;;;;;;4.97;4.27;;;8.50;99.90;;;;;;5073740;28;20230;-62
2022/04/19 13:26:57;;;;;;;5.13;4.17;;;8.50;99.90;;;;;;5065729;28;20345;-64
2022/04/19 13:29:47;;;;;;;7.57;5.20;;;8.60;99.90;;;;;;5061571;28;20239;-64
2022/04/19 13:32:36;;;;;;;5.50;4.67;;;8.50;99.90;;;;;;5078444;28;20224;-63
2022/04/19 13:35:24;;;;;;;5.57;4.63;;;8.60;99.90;;;;;;5075275;28;20307;-63
2022/04/19 13:38:24;;;;;;;5.43;4.17;;;8.30;99.90;;;;;;5075635;28;20773;-63
2022/04/19 13:41:13;;;;;;;5.93;4.33;;;8.20;99.90;;;;;;5076219;28;20574;-63
2022/04/19 13:44:02;;;;;;;5.73;4.10;;;8.10;99.90;;;;;;5076393;28;20224;-63
2022/04/19 13:46:52;;;;;;;4.93;3.87;;;8.20;99.90;;;;;;5060400;28;20260;-63
2022/04/19 13:49:41;;;;;;;5.77;4.00;;;8.40;99.90;;;;;;5069301;28;20237;-63
2022/04/19 13:52:33;;;;;;;4.83;4.20;;;8.50;99.90;;;;;;5075727;28;20272;-63
2022/04/19 13:55:23;;;;;;;5.67;4.00;;;8.50;99.90;;;;;;5072948;28;20235;-64
2022/04/19 13:58:13;;;;;;;5.03;4.30;;;8.70;99.90;;;;;;5077484;28;20256;-63
2022/04/19 14:01:06;;;;;;;4.27;3.87;;;9.00;99.90;;;;;;5072247;28;20215;-63
2022/04/19 14:03:55;;;;;;;6.83;3.97;;;9.20;99.90;;;;;;5081018;28;20241;-63
2022/04/19 14:06:47;;;;;;;5.23;4.10;;;8.90;99.90;;;;;;5061381;28;20227;-62
2022/04/19 14:09:36;;;;;;;6.63;3.83;;;8.60;99.90;;;;;;5078354;28;20369;-64
2022/04/19 14:12:30;;;;;;;4.73;4.00;;;8.90;99.90;;;;;;5065116;28;20708;-64
2022/04/19 14:15:19;;;;;;;4.70;3.83;;;9.20;99.90;;;;;;5072279;28;20231;-63
2022/04/19 14:18:08;;;;;;;5.70;4.10;;;9.10;99.90;;;;;;5063228;28;20226;-64
2022/04/19 14:20:57;;;;;;;7.33;4.00;;;9.30;99.00;;;;;;5072166;28;20216;-63
2022/04/19 14:23:49;;;;;;;4.70;4.20;;;8.80;99.80;;;;;;5046137;28;20232;-64
2022/04/19 14:26:39;;;;;;;4.90;4.40;;;8.90;99.50;;;;;;5052145;28;20244;-64
2022/04/19 14:35:47;;;;;;;5.40;3.88;;;9.60;98.90;;;;;;5042168;28;20242;-63
2022/04/19 14:38:38;;;;;;;4.53;3.80;;;9.20;98.30;;;;;;5056922;28;20758;-62
2022/04/19 14:41:28;;;;;;;3.80;3.40;;;9.40;97.50;;;;;;5045481;28;20355;-64
2022/04/19 14:44:18;;;;;;;6.03;3.70;;;8.90;97.10;;;;;;5067857;28;20233;-62
2022/04/19 16:42:27;;;;;;;4.30;3.70;;;8.80;95.20;;;;;;5122003;27;20332;-61
2022/04/19 16:45:15;;;;;;;6.03;4.07;;;8.70;96.50;;;;;;5071846;28;20224;-62
2022/04/19 16:48:04;;;;;;;4.83;4.03;;;8.70;95.70;;;;;;5069915;28;20225;-63
2022/04/19 16:50:53;;;;;;;4.50;4.03;;;8.70;95.60;;;;;;5069122;28;20243;-65
2022/04/19 16:53:42;;;;;;;4.97;4.33;;;8.70;97.20;;;;;;5092369;28;20212;-63
2022/04/19 16:56:31;;;;;;;5.20;4.13;;;8.80;98.50;;;;;;5073351;28;20321;-63
2022/04/19 16:59:21;;;;;;;4.73;3.57;;;8.70;97.50;;;;;;5100956;27;20236;-63
2022/04/19 17:02:10;;;;;;;5.53;4.50;;;8.80;97.60;;;;;;5090349;27;20495;-62
2022/04/19 17:04:58;;;;;;;5.30;4.47;;;8.80;99.20;;;;;;5070126;28;20229;-63
2022/04/19 17:07:48;;;;;;;5.27;3.93;;;8.80;98.60;;;;;;5100875;28;20301;-61
2022/04/19 17:10:37;;;;;;;6.03;3.80;;;8.70;98.30;;;;;;5094193;27;20873;-62
2022/04/19 17:13:26;;;;;;;4.63;4.00;;;8.70;97.90;;;;;;5093705;28;20223;-63
2022/04/19 17:30:14;;;;;;;7.07;4.37;;;8.80;99.40;;;;;;5045193;28;20991;-65
2022/04/19 17:33:03;;;;;;;4.93;4.10;;;8.80;97.80;;;;;;5040284;28;20308;-62
2022/04/19 17:35:52;;;;;;;5.03;4.53;;;8.70;97.70;;;;;;5086748;28;20741;-61
2022/04/19 17:38:41;;;;;;;6.77;4.40;;;8.70;97.80;;;;;;5078352;27;20227;-63
2022/04/19 17:41:30;;;;;;;6.33;4.30;;;8.60;98.00;;;;;;5090595;28;20228;-62
2022/04/19 17:44:18;;;;;;;4.90;3.80;;;8.70;98.20;;;;;;5069553;28;20236;-64
2022/04/19 17:47:09;;;;;;;4.83;4.17;;;8.60;98.60;;;;;;5080697;28;20946;-62
2022/04/19 17:56:33;;;;;;;6.77;4.80;;;8.70;99.30;;;;;;5074861;28;20825;-63
2022/04/19 17:59:22;;;;;;;6.47;4.27;;;8.70;99.70;;;;;;5098336;27;20228;-62
2022/04/19 18:02:15;;;;;;;5.67;4.43;;;8.60;99.50;;;;;;5094213;27;20238;-61
2022/04/19 18:05:04;;;;;;;6.13;4.10;;;8.50;99.90;;;;;;5093058;27;20230;-62
2022/04/19 18:07:53;;;;;;;5.27;4.20;;;8.60;99.90;;;;;;5083331;27;20326;-62
2022/04/19 18:10:43;;;;;;;5.93;4.47;;;8.60;99.90;;;;;;5099568;27;20905;-62